sensor_id;sensor_type;location;lat;lon;timestamp;P1;durP1;ratioP1;P2;durP2;ratioP2
49071;SDS011;52656;52.610;10.236;2023-11-19T00:02:07;2.05;;;1.50;;
49071;SDS011;52656;52.610;10.236;2023-11-19T00:04:34;3.63;;;2.20;;
49071;SDS011;52656;52.610;10.236;2023-11-19T00:07:02;4.05;;;2.25;;
49071;SDS011;52656;52.610;10.236;2023-11-19T00:09:29;6.25;;;3.03;;
49071;SDS011;52656;52.610;10.236;2023-11-19T00:11:55;4.10;;;2.13;;
49071;SDS011;52656;52.610;10.236;2023-11-19T00:14:20;4.88;;;2.80;;
49071;SDS011;52656;52.610;10.236;2023-11-19T00:16:46;4.05;;;2.58;;
49071;SDS011;52656;52.610;10.236;2023-11-19T00:19:11;4.60;;;2.63;;
49071;SDS011;52656;52.610;10.236;2023-11-19T00:21:36;4.40;;;2.55;;
49071;SDS011;52656;52.610;10.236;2023-11-19T00:24:02;2.40;;;1.50;;
49071;SDS011;52656;52.610;10.236;2023-11-19T00:26:27;1.92;;;1.40;;
49071;SDS011;52656;52.610;10.236;2023-11-19T00:28:52;5.20;;;2.85;;
49071;SDS011;52656;52.610;10.236;2023-11-19T00:31:18;4.40;;;2.90;;
49071;SDS011;52656;52.610;10.236;2023-11-19T00:33:43;6.43;;;2.35;;
49071;SDS011;52656;52.610;10.236;2023-11-19T00:36:08;4.05;;;2.88;;
49071;SDS011;52656;52.610;10.236;2023-11-19T00:38:34;6.18;;;2.88;;
49071;SDS011;52656;52.610;10.236;2023-11-19T00:40:59;4.82;;;2.53;;
49071;SDS011;52656;52.610;10.236;2023-11-19T00:43:25;7.43;;;3.30;;
49071;SDS011;52656;52.610;10.236;2023-11-19T00:45:51;4.35;;;2.80;;
49071;SDS011;52656;52.610;10.236;2023-11-19T00:48:16;7.80;;;3.45;;
49071;SDS011;52656;52.610;10.236;2023-11-19T00:50:42;4.38;;;2.75;;
49071;SDS011;52656;52.610;10.236;2023-11-19T00:53:10;2.80;;;1.65;;
49071;SDS011;52656;52.610;10.236;2023-11-19T00:55:35;5.05;;;2.20;;
49071;SDS011;52656;52.610;10.236;2023-11-19T00:58:01;5.70;;;3.03;;
49071;SDS011;52656;52.610;10.236;2023-11-19T01:00:26;4.30;;;2.13;;
49071;SDS011;52656;52.610;10.236;2023-11-19T01:02:52;4.65;;;2.47;;
49071;SDS011;52656;52.610;10.236;2023-11-19T01:05:18;9.25;;;3.90;;
49071;SDS011;52656;52.610;10.236;2023-11-19T01:07:47;5.88;;;3.28;;
49071;SDS011;52656;52.610;10.236;2023-11-19T01:10:12;3.90;;;2.13;;
49071;SDS011;52656;52.610;10.236;2023-11-19T01:12:38;4.45;;;2.60;;
49071;SDS011;52656;52.610;10.236;2023-11-19T01:15:04;6.80;;;3.67;;
49071;SDS011;52656;52.610;10.236;2023-11-19T01:17:30;5.57;;;2.97;;
49071;SDS011;52656;52.610;10.236;2023-11-19T01:22:22;6.75;;;3.42;;
49071;SDS011;52656;52.610;10.236;2023-11-19T01:27:13;4.97;;;2.47;;
49071;SDS011;52656;52.610;10.236;2023-11-19T01:29:38;4.18;;;2.40;;
49071;SDS011;52656;52.610;10.236;2023-11-19T01:32:04;3.30;;;2.28;;
49071;SDS011;52656;52.610;10.236;2023-11-19T01:34:30;7.18;;;3.97;;
49071;SDS011;52656;52.610;10.236;2023-11-19T01:36:55;6.07;;;3.78;;
49071;SDS011;52656;52.610;10.236;2023-11-19T01:39:21;6.20;;;3.63;;
49071;SDS011;52656;52.610;10.236;2023-11-19T01:41:46;8.02;;;3.50;;
49071;SDS011;52656;52.610;10.236;2023-11-19T01:44:11;7.40;;;4.03;;
49071;SDS011;52656;52.610;10.236;2023-11-19T01:46:43;6.35;;;3.45;;
49071;SDS011;52656;52.610;10.236;2023-11-19T01:49:12;8.02;;;4.13;;
49071;SDS011;52656;52.610;10.236;2023-11-19T01:51:39;6.88;;;3.53;;
49071;SDS011;52656;52.610;10.236;2023-11-19T01:56:32;7.38;;;3.80;;
49071;SDS011;52656;52.610;10.236;2023-11-19T01:58:58;6.80;;;3.70;;
49071;SDS011;52656;52.610;10.236;2023-11-19T02:01:24;8.07;;;4.00;;
49071;SDS011;52656;52.610;10.236;2023-11-19T02:03:50;6.43;;;3.47;;
49071;SDS011;52656;52.610;10.236;2023-11-19T02:06:16;6.68;;;3.53;;
49071;SDS011;52656;52.610;10.236;2023-11-19T02:08:42;6.80;;;3.85;;
49071;SDS011;52656;52.610;10.236;2023-11-19T02:11:08;9.27;;;4.13;;
49071;SDS011;52656;52.610;10.236;2023-11-19T02:13:34;8.65;;;3.72;;
49071;SDS011;52656;52.610;10.236;2023-11-19T02:16:02;4.00;;;2.60;;
49071;SDS011;52656;52.610;10.236;2023-11-19T02:18:28;6.25;;;2.90;;
49071;SDS011;52656;52.610;10.236;2023-11-19T02:20:54;10.98;;;4.80;;
49071;SDS011;52656;52.610;10.236;2023-11-19T02:23:20;6.30;;;3.35;;
49071;SDS011;52656;52.610;10.236;2023-11-19T02:28:23;6.57;;;2.50;;
49071;SDS011;52656;52.610;10.236;2023-11-19T02:30:48;5.93;;;2.88;;
49071;SDS011;52656;52.610;10.236;2023-11-19T02:33:14;6.13;;;3.33;;
49071;SDS011;52656;52.610;10.236;2023-11-19T02:35:40;5.40;;;3.47;;
49071;SDS011;52656;52.610;10.236;2023-11-19T02:38:06;5.00;;;2.88;;
49071;SDS011;52656;52.610;10.236;2023-11-19T02:40:32;6.50;;;3.40;;
49071;SDS011;52656;52.610;10.236;2023-11-19T02:42:57;5.82;;;3.28;;
49071;SDS011;52656;52.610;10.236;2023-11-19T02:45:23;5.32;;;3.42;;
49071;SDS011;52656;52.610;10.236;2023-11-19T02:47:49;9.40;;;4.15;;
49071;SDS011;52656;52.610;10.236;2023-11-19T02:50:14;4.55;;;2.40;;
49071;SDS011;52656;52.610;10.236;2023-11-19T02:52:41;4.68;;;2.88;;
49071;SDS011;52656;52.610;10.236;2023-11-19T02:55:11;5.05;;;2.78;;
49071;SDS011;52656;52.610;10.236;2023-11-19T02:57:40;5.18;;;2.60;;
49071;SDS011;52656;52.610;10.236;2023-11-19T03:00:20;3.85;;;2.50;;
49071;SDS011;52656;52.610;10.236;2023-11-19T03:02:57;4.78;;;2.70;;
49071;SDS011;52656;52.610;10.236;2023-11-19T03:05:34;4.65;;;2.33;;
49071;SDS011;52656;52.610;10.236;2023-11-19T03:08:00;3.88;;;2.33;;
49071;SDS011;52656;52.610;10.236;2023-11-19T03:10:25;4.00;;;2.30;;
49071;SDS011;52656;52.610;10.236;2023-11-19T03:12:50;4.95;;;2.63;;
49071;SDS011;52656;52.610;10.236;2023-11-19T03:15:16;4.57;;;2.17;;
49071;SDS011;52656;52.610;10.236;2023-11-19T03:17:41;5.97;;;2.47;;
49071;SDS011;52656;52.610;10.236;2023-11-19T03:20:08;3.75;;;2.40;;
49071;SDS011;52656;52.610;10.236;2023-11-19T03:22:38;3.13;;;2.05;;
49071;SDS011;52656;52.610;10.236;2023-11-19T03:25:03;3.42;;;2.10;;
49071;SDS011;52656;52.610;10.236;2023-11-19T03:27:29;4.68;;;1.83;;
49071;SDS011;52656;52.610;10.236;2023-11-19T03:29:54;3.60;;;2.08;;
49071;SDS011;52656;52.610;10.236;2023-11-19T03:32:20;3.93;;;2.27;;
49071;SDS011;52656;52.610;10.236;2023-11-19T03:34:45;2.53;;;1.77;;
49071;SDS011;52656;52.610;10.236;2023-11-19T03:37:10;4.28;;;1.95;;
49071;SDS011;52656;52.610;10.236;2023-11-19T03:39:35;3.70;;;2.20;;
49071;SDS011;52656;52.610;10.236;2023-11-19T03:42:01;3.92;;;2.40;;
49071;SDS011;52656;52.610;10.236;2023-11-19T03:44:27;7.70;;;2.40;;
49071;SDS011;52656;52.610;10.236;2023-11-19T03:46:52;4.20;;;2.25;;
49071;SDS011;52656;52.610;10.236;2023-11-19T03:49:17;4.28;;;2.20;;
49071;SDS011;52656;52.610;10.236;2023-11-19T03:51:43;3.88;;;2.30;;
49071;SDS011;52656;52.610;10.236;2023-11-19T03:54:08;4.87;;;2.20;;
49071;SDS011;52656;52.610;10.236;2023-11-19T03:56:33;3.83;;;2.30;;
49071;SDS011;52656;52.610;10.236;2023-11-19T03:58:59;2.73;;;1.80;;
49071;SDS011;52656;52.610;10.236;2023-11-19T04:01:24;4.18;;;2.30;;
49071;SDS011;52656;52.610;10.236;2023-11-19T04:03:49;5.20;;;2.55;;
49071;SDS011;52656;52.610;10.236;2023-11-19T04:06:15;4.97;;;2.20;;
49071;SDS011;52656;52.610;10.236;2023-11-19T04:08:40;6.50;;;2.47;;
49071;SDS011;52656;52.610;10.236;2023-11-19T04:11:06;3.33;;;2.15;;
49071;SDS011;52656;52.610;10.236;2023-11-19T04:13:31;3.97;;;2.25;;
49071;SDS011;52656;52.610;10.236;2023-11-19T04:15:57;3.47;;;2.13;;
49071;SDS011;52656;52.610;10.236;2023-11-19T04:18:22;3.40;;;2.33;;
49071;SDS011;52656;52.610;10.236;2023-11-19T04:20:48;5.50;;;2.15;;
49071;SDS011;52656;52.610;10.236;2023-11-19T04:23:13;3.50;;;2.17;;
49071;SDS011;52656;52.610;10.236;2023-11-19T04:25:39;4.75;;;2.92;;
49071;SDS011;52656;52.610;10.236;2023-11-19T04:28:04;3.97;;;2.58;;
49071;SDS011;52656;52.610;10.236;2023-11-19T04:30:29;7.63;;;2.70;;
49071;SDS011;52656;52.610;10.236;2023-11-19T04:32:56;4.43;;;2.63;;
49071;SDS011;52656;52.610;10.236;2023-11-19T04:35:22;5.28;;;3.22;;
49071;SDS011;52656;52.610;10.236;2023-11-19T04:37:48;5.20;;;3.10;;
49071;SDS011;52656;52.610;10.236;2023-11-19T04:40:14;7.70;;;3.33;;
49071;SDS011;52656;52.610;10.236;2023-11-19T04:42:39;8.68;;;3.30;;
49071;SDS011;52656;52.610;10.236;2023-11-19T04:45:05;5.40;;;3.05;;
49071;SDS011;52656;52.610;10.236;2023-11-19T04:47:32;7.78;;;3.88;;
49071;SDS011;52656;52.610;10.236;2023-11-19T04:49:57;7.60;;;3.42;;
49071;SDS011;52656;52.610;10.236;2023-11-19T04:52:22;6.47;;;3.33;;
49071;SDS011;52656;52.610;10.236;2023-11-19T04:54:48;7.63;;;3.63;;
49071;SDS011;52656;52.610;10.236;2023-11-19T04:57:13;5.82;;;3.35;;
49071;SDS011;52656;52.610;10.236;2023-11-19T04:59:38;6.07;;;3.97;;
49071;SDS011;52656;52.610;10.236;2023-11-19T05:02:04;6.60;;;3.95;;
49071;SDS011;52656;52.610;10.236;2023-11-19T05:04:30;6.75;;;3.95;;
49071;SDS011;52656;52.610;10.236;2023-11-19T05:06:56;6.28;;;3.47;;
49071;SDS011;52656;52.610;10.236;2023-11-19T05:09:22;5.32;;;3.28;;
49071;SDS011;52656;52.610;10.236;2023-11-19T05:11:47;7.10;;;3.80;;
49071;SDS011;52656;52.610;10.236;2023-11-19T05:14:13;8.73;;;3.95;;
49071;SDS011;52656;52.610;10.236;2023-11-19T05:16:39;10.93;;;4.32;;
49071;SDS011;52656;52.610;10.236;2023-11-19T05:21:30;9.27;;;4.20;;
49071;SDS011;52656;52.610;10.236;2023-11-19T05:23:55;6.95;;;4.18;;
49071;SDS011;52656;52.610;10.236;2023-11-19T05:26:22;8.00;;;3.83;;
49071;SDS011;52656;52.610;10.236;2023-11-19T05:28:48;8.65;;;4.18;;
49071;SDS011;52656;52.610;10.236;2023-11-19T05:31:15;10.52;;;4.30;;
49071;SDS011;52656;52.610;10.236;2023-11-19T05:33:41;10.68;;;5.25;;
49071;SDS011;52656;52.610;10.236;2023-11-19T05:36:06;8.27;;;4.38;;
49071;SDS011;52656;52.610;10.236;2023-11-19T05:38:33;8.73;;;5.03;;
49071;SDS011;52656;52.610;10.236;2023-11-19T05:40:59;9.25;;;4.68;;
49071;SDS011;52656;52.610;10.236;2023-11-19T05:43:24;19.05;;;4.90;;
49071;SDS011;52656;52.610;10.236;2023-11-19T05:45:49;8.23;;;4.72;;
49071;SDS011;52656;52.610;10.236;2023-11-19T05:48:14;14.40;;;5.57;;
49071;SDS011;52656;52.610;10.236;2023-11-19T05:50:40;10.10;;;5.22;;
49071;SDS011;52656;52.610;10.236;2023-11-19T05:53:05;12.25;;;5.78;;
49071;SDS011;52656;52.610;10.236;2023-11-19T05:58:00;10.23;;;5.53;;
49071;SDS011;52656;52.610;10.236;2023-11-19T06:00:25;12.57;;;5.28;;
49071;SDS011;52656;52.610;10.236;2023-11-19T06:02:51;12.07;;;5.32;;
49071;SDS011;52656;52.610;10.236;2023-11-19T06:05:16;13.55;;;5.90;;
49071;SDS011;52656;52.610;10.236;2023-11-19T06:07:42;14.50;;;6.32;;
49071;SDS011;52656;52.610;10.236;2023-11-19T06:10:07;18.93;;;6.57;;
49071;SDS011;52656;52.610;10.236;2023-11-19T06:12:34;15.20;;;6.55;;
49071;SDS011;52656;52.610;10.236;2023-11-19T06:15:03;11.23;;;6.55;;
49071;SDS011;52656;52.610;10.236;2023-11-19T06:17:30;12.55;;;6.93;;
49071;SDS011;52656;52.610;10.236;2023-11-19T06:19:55;15.98;;;6.93;;
49071;SDS011;52656;52.610;10.236;2023-11-19T06:22:20;14.30;;;6.97;;
49071;SDS011;52656;52.610;10.236;2023-11-19T06:24:46;15.60;;;7.60;;
49071;SDS011;52656;52.610;10.236;2023-11-19T06:27:11;15.35;;;6.80;;
49071;SDS011;52656;52.610;10.236;2023-11-19T06:29:36;14.95;;;7.30;;
49071;SDS011;52656;52.610;10.236;2023-11-19T06:32:02;19.15;;;8.18;;
49071;SDS011;52656;52.610;10.236;2023-11-19T06:34:27;15.20;;;7.50;;
49071;SDS011;52656;52.610;10.236;2023-11-19T06:36:53;13.20;;;7.35;;
49071;SDS011;52656;52.610;10.236;2023-11-19T06:39:18;20.02;;;8.13;;
49071;SDS011;52656;52.610;10.236;2023-11-19T06:41:45;16.60;;;7.60;;
49071;SDS011;52656;52.610;10.236;2023-11-19T06:44:11;19.27;;;7.53;;
49071;SDS011;52656;52.610;10.236;2023-11-19T06:46:36;21.40;;;7.93;;
49071;SDS011;52656;52.610;10.236;2023-11-19T06:51:27;15.75;;;8.68;;
49071;SDS011;52656;52.610;10.236;2023-11-19T06:53:52;16.45;;;8.98;;
49071;SDS011;52656;52.610;10.236;2023-11-19T06:56:21;20.48;;;9.00;;
49071;SDS011;52656;52.610;10.236;2023-11-19T06:58:47;22.23;;;9.32;;
49071;SDS011;52656;52.610;10.236;2023-11-19T07:01:13;21.75;;;10.05;;
49071;SDS011;52656;52.610;10.236;2023-11-19T07:03:40;21.40;;;9.93;;
49071;SDS011;52656;52.610;10.236;2023-11-19T07:06:05;24.02;;;10.25;;
49071;SDS011;52656;52.610;10.236;2023-11-19T07:10:56;15.75;;;8.98;;
49071;SDS011;52656;52.610;10.236;2023-11-19T07:13:21;18.55;;;9.57;;
49071;SDS011;52656;52.610;10.236;2023-11-19T07:15:46;23.97;;;10.47;;
49071;SDS011;52656;52.610;10.236;2023-11-19T07:18:12;21.35;;;10.40;;
49071;SDS011;52656;52.610;10.236;2023-11-19T07:20:37;17.75;;;9.50;;
49071;SDS011;52656;52.610;10.236;2023-11-19T07:23:03;29.55;;;12.88;;
49071;SDS011;52656;52.610;10.236;2023-11-19T07:27:54;32.28;;;11.57;;
49071;SDS011;52656;52.610;10.236;2023-11-19T07:32:44;29.17;;;11.63;;
49071;SDS011;52656;52.610;10.236;2023-11-19T07:35:09;30.02;;;11.90;;
49071;SDS011;52656;52.610;10.236;2023-11-19T07:37:35;31.63;;;11.38;;
49071;SDS011;52656;52.610;10.236;2023-11-19T07:40:00;36.28;;;12.45;;
49071;SDS011;52656;52.610;10.236;2023-11-19T07:42:25;35.40;;;12.00;;
49071;SDS011;52656;52.610;10.236;2023-11-19T07:44:51;35.58;;;11.60;;
49071;SDS011;52656;52.610;10.236;2023-11-19T07:49:41;33.22;;;10.88;;
49071;SDS011;52656;52.610;10.236;2023-11-19T07:52:08;21.55;;;9.18;;
49071;SDS011;52656;52.610;10.236;2023-11-19T07:54:34;20.55;;;9.18;;
49071;SDS011;52656;52.610;10.236;2023-11-19T07:59:24;23.88;;;7.20;;
49071;SDS011;52656;52.610;10.236;2023-11-19T08:04:15;35.78;;;8.43;;
49071;SDS011;52656;52.610;10.236;2023-11-19T08:06:40;27.33;;;7.93;;
49071;SDS011;52656;52.610;10.236;2023-11-19T08:11:31;24.80;;;6.90;;
49071;SDS011;52656;52.610;10.236;2023-11-19T08:13:57;26.25;;;6.55;;
49071;SDS011;52656;52.610;10.236;2023-11-19T08:16:22;25.17;;;7.35;;
49071;SDS011;52656;52.610;10.236;2023-11-19T08:18:48;25.83;;;7.07;;
49071;SDS011;52656;52.610;10.236;2023-11-19T08:23:39;22.70;;;6.90;;
49071;SDS011;52656;52.610;10.236;2023-11-19T08:26:05;25.80;;;6.05;;
49071;SDS011;52656;52.610;10.236;2023-11-19T08:30:56;30.67;;;7.05;;
49071;SDS011;52656;52.610;10.236;2023-11-19T08:33:21;30.27;;;6.80;;
49071;SDS011;52656;52.610;10.236;2023-11-19T08:38:13;24.05;;;6.32;;
49071;SDS011;52656;52.610;10.236;2023-11-19T08:40:38;23.33;;;5.97;;
49071;SDS011;52656;52.610;10.236;2023-11-19T08:45:29;23.88;;;6.65;;
49071;SDS011;52656;52.610;10.236;2023-11-19T08:50:20;19.70;;;6.00;;
49071;SDS011;52656;52.610;10.236;2023-11-19T08:52:45;13.82;;;5.28;;
49071;SDS011;52656;52.610;10.236;2023-11-19T08:55:11;23.10;;;5.13;;
49071;SDS011;52656;52.610;10.236;2023-11-19T08:57:38;20.92;;;4.85;;
49071;SDS011;52656;52.610;10.236;2023-11-19T09:02:32;22.13;;;6.50;;
49071;SDS011;52656;52.610;10.236;2023-11-19T09:07:23;21.63;;;4.53;;
49071;SDS011;52656;52.610;10.236;2023-11-19T09:12:14;25.10;;;5.00;;
49071;SDS011;52656;52.610;10.236;2023-11-19T09:14:39;21.60;;;5.13;;
49071;SDS011;52656;52.610;10.236;2023-11-19T09:19:31;23.85;;;4.78;;
49071;SDS011;52656;52.610;10.236;2023-11-19T09:21:57;23.80;;;4.47;;
49071;SDS011;52656;52.610;10.236;2023-11-19T09:26:48;18.55;;;4.82;;
49071;SDS011;52656;52.610;10.236;2023-11-19T09:31:39;20.52;;;5.10;;
49071;SDS011;52656;52.610;10.236;2023-11-19T09:36:30;26.38;;;5.80;;
49071;SDS011;52656;52.610;10.236;2023-11-19T09:41:21;27.60;;;5.53;;
49071;SDS011;52656;52.610;10.236;2023-11-19T09:43:48;28.98;;;5.57;;
49071;SDS011;52656;52.610;10.236;2023-11-19T09:48:40;21.03;;;4.77;;
49071;SDS011;52656;52.610;10.236;2023-11-19T09:53:31;21.60;;;4.90;;
49071;SDS011;52656;52.610;10.236;2023-11-19T09:56:01;31.85;;;5.68;;
49071;SDS011;52656;52.610;10.236;2023-11-19T09:58:28;27.27;;;5.60;;
49071;SDS011;52656;52.610;10.236;2023-11-19T10:00:54;27.55;;;5.93;;
49071;SDS011;52656;52.610;10.236;2023-11-19T10:05:46;27.00;;;4.90;;
49071;SDS011;52656;52.610;10.236;2023-11-19T10:10:37;20.27;;;4.70;;
49071;SDS011;52656;52.610;10.236;2023-11-19T10:15:28;28.15;;;5.20;;
49071;SDS011;52656;52.610;10.236;2023-11-19T10:18:00;27.02;;;5.15;;
49071;SDS011;52656;52.610;10.236;2023-11-19T10:22:54;20.73;;;4.93;;
49071;SDS011;52656;52.610;10.236;2023-11-19T10:25:24;32.88;;;5.88;;
49071;SDS011;52656;52.610;10.236;2023-11-19T10:27:51;27.70;;;5.60;;
49071;SDS011;52656;52.610;10.236;2023-11-19T10:30:18;32.72;;;6.15;;
49071;SDS011;52656;52.610;10.236;2023-11-19T10:33:02;23.67;;;5.25;;
49071;SDS011;52656;52.610;10.236;2023-11-19T10:35:28;30.95;;;6.35;;
49071;SDS011;52656;52.610;10.236;2023-11-19T10:40:19;24.80;;;4.72;;
49071;SDS011;52656;52.610;10.236;2023-11-19T10:45:23;31.15;;;5.72;;
49071;SDS011;52656;52.610;10.236;2023-11-19T10:47:49;24.67;;;5.40;;
49071;SDS011;52656;52.610;10.236;2023-11-19T10:50:17;23.92;;;5.47;;
49071;SDS011;52656;52.610;10.236;2023-11-19T10:55:08;23.92;;;5.10;;
49071;SDS011;52656;52.610;10.236;2023-11-19T10:57:39;27.65;;;5.25;;
49071;SDS011;52656;52.610;10.236;2023-11-19T11:00:11;19.67;;;4.53;;
49071;SDS011;52656;52.610;10.236;2023-11-19T11:02:42;22.88;;;4.50;;
49071;SDS011;52656;52.610;10.236;2023-11-19T11:05:13;30.52;;;5.63;;
49071;SDS011;52656;52.610;10.236;2023-11-19T11:07:39;32.03;;;5.30;;
49071;SDS011;52656;52.610;10.236;2023-11-19T11:10:07;21.85;;;4.90;;
49071;SDS011;52656;52.610;10.236;2023-11-19T11:12:35;23.15;;;4.53;;
49071;SDS011;52656;52.610;10.236;2023-11-19T11:16:24;21.80;;;4.83;;
49071;SDS011;52656;52.610;10.236;2023-11-19T11:18:50;23.33;;;4.90;;
49071;SDS011;52656;52.610;10.236;2023-11-19T11:21:19;27.27;;;5.18;;
49071;SDS011;52656;52.610;10.236;2023-11-19T11:32:34;23.45;;;5.25;;
49071;SDS011;52656;52.610;10.236;2023-11-19T11:38:23;25.50;;;4.95;;
49071;SDS011;52656;52.610;10.236;2023-11-19T11:43:43;17.48;;;4.40;;
49071;SDS011;52656;52.610;10.236;2023-11-19T11:46:12;18.83;;;4.07;;
49071;SDS011;52656;52.610;10.236;2023-11-19T11:49:04;29.20;;;5.05;;
49071;SDS011;52656;52.610;10.236;2023-11-19T11:54:09;19.83;;;3.95;;
49071;SDS011;52656;52.610;10.236;2023-11-19T11:56:58;19.60;;;4.60;;
49071;SDS011;52656;52.610;10.236;2023-11-19T11:59:51;18.52;;;4.40;;
49071;SDS011;52656;52.610;10.236;2023-11-19T12:02:18;17.45;;;4.45;;
49071;SDS011;52656;52.610;10.236;2023-11-19T12:04:46;23.08;;;4.88;;
49071;SDS011;52656;52.610;10.236;2023-11-19T12:07:31;25.55;;;4.05;;
49071;SDS011;52656;52.610;10.236;2023-11-19T12:10:08;20.13;;;4.80;;
49071;SDS011;52656;52.610;10.236;2023-11-19T12:12:36;20.63;;;4.30;;
49071;SDS011;52656;52.610;10.236;2023-11-19T12:15:06;22.20;;;4.65;;
49071;SDS011;52656;52.610;10.236;2023-11-19T12:17:42;25.70;;;4.53;;
49071;SDS011;52656;52.610;10.236;2023-11-19T12:20:14;23.55;;;4.95;;
49071;SDS011;52656;52.610;10.236;2023-11-19T12:25:09;23.92;;;5.22;;
49071;SDS011;52656;52.610;10.236;2023-11-19T12:27:35;21.45;;;4.00;;
49071;SDS011;52656;52.610;10.236;2023-11-19T12:30:02;21.92;;;4.72;;
49071;SDS011;52656;52.610;10.236;2023-11-19T12:32:42;21.35;;;5.43;;
49071;SDS011;52656;52.610;10.236;2023-11-19T12:35:08;21.30;;;4.63;;
49071;SDS011;52656;52.610;10.236;2023-11-19T12:37:44;25.45;;;4.97;;
49071;SDS011;52656;52.610;10.236;2023-11-19T12:40:14;26.90;;;5.85;;
49071;SDS011;52656;52.610;10.236;2023-11-19T12:42:42;19.27;;;4.43;;
49071;SDS011;52656;52.610;10.236;2023-11-19T12:47:35;22.50;;;4.53;;
49071;SDS011;52656;52.610;10.236;2023-11-19T12:50:02;19.83;;;4.68;;
49071;SDS011;52656;52.610;10.236;2023-11-19T12:54:52;25.45;;;4.43;;
49071;SDS011;52656;52.610;10.236;2023-11-19T13:00:04;19.88;;;4.78;;
49071;SDS011;52656;52.610;10.236;2023-11-19T13:02:46;21.58;;;4.45;;
49071;SDS011;52656;52.610;10.236;2023-11-19T13:08:14;19.40;;;4.78;;
49071;SDS011;52656;52.610;10.236;2023-11-19T13:10:51;18.38;;;3.63;;
49071;SDS011;52656;52.610;10.236;2023-11-19T13:13:18;19.92;;;4.65;;
49071;SDS011;52656;52.610;10.236;2023-11-19T13:18:12;14.05;;;4.38;;
49071;SDS011;52656;52.610;10.236;2023-11-19T13:20:38;19.30;;;4.30;;
49071;SDS011;52656;52.610;10.236;2023-11-19T13:25:30;18.60;;;4.72;;
49071;SDS011;52656;52.610;10.236;2023-11-19T13:27:56;19.30;;;4.10;;
49071;SDS011;52656;52.610;10.236;2023-11-19T13:46:56;17.40;;;4.23;;
49071;SDS011;52656;52.610;10.236;2023-11-19T13:51:46;19.52;;;4.85;;
49071;SDS011;52656;52.610;10.236;2023-11-19T13:56:39;20.20;;;4.95;;
49071;SDS011;74284;52.610;10.236;2023-11-19T14:01:30;19.53;;;4.70;;
49071;SDS011;74284;52.610;10.236;2023-11-19T14:06:21;26.90;;;5.35;;
49071;SDS011;74284;52.610;10.236;2023-11-19T14:11:12;23.35;;;5.35;;
49071;SDS011;74284;52.610;10.236;2023-11-19T14:16:02;23.85;;;4.80;;
49071;SDS011;74284;52.610;10.236;2023-11-19T14:20:53;23.50;;;5.50;;
49071;SDS011;74284;52.610;10.236;2023-11-19T14:25:44;27.27;;;5.70;;
49071;SDS011;74284;52.610;10.236;2023-11-19T14:30:35;23.67;;;5.80;;
49071;SDS011;74284;52.610;10.236;2023-11-19T14:35:25;40.47;;;6.55;;
49071;SDS011;74284;52.610;10.236;2023-11-19T14:40:16;26.25;;;5.90;;
49071;SDS011;74284;52.610;10.236;2023-11-19T14:45:07;27.08;;;5.97;;
49071;SDS011;74284;52.610;10.236;2023-11-19T14:47:36;24.95;;;5.35;;
49071;SDS011;74284;52.610;10.236;2023-11-19T14:52:28;32.70;;;6.00;;
49071;SDS011;74284;52.610;10.236;2023-11-19T14:57:19;30.58;;;5.13;;
49071;SDS011;74284;52.610;10.236;2023-11-19T14:59:44;31.83;;;6.32;;
49071;SDS011;74284;52.610;10.236;2023-11-19T15:02:11;22.08;;;5.22;;
49071;SDS011;74284;52.610;10.236;2023-11-19T15:07:02;28.05;;;5.88;;
49071;SDS011;74284;52.610;10.236;2023-11-19T15:09:29;33.35;;;6.85;;
49071;SDS011;74284;52.610;10.236;2023-11-19T15:14:19;20.83;;;4.95;;
49071;SDS011;74284;52.610;10.236;2023-11-19T15:16:45;34.38;;;6.22;;
49071;SDS011;74284;52.610;10.236;2023-11-19T15:19:12;24.98;;;5.68;;
49071;SDS011;74284;52.610;10.236;2023-11-19T15:21:39;31.65;;;6.45;;
49071;SDS011;74284;52.610;10.236;2023-11-19T15:28:57;30.75;;;6.00;;
49071;SDS011;74284;52.610;10.236;2023-11-19T15:33:48;28.88;;;6.75;;
49071;SDS011;74284;52.610;10.236;2023-11-19T15:36:15;32.88;;;6.18;;
49071;SDS011;74284;52.610;10.236;2023-11-19T15:41:06;45.50;;;6.65;;
49071;SDS011;74284;52.610;10.236;2023-11-19T15:45:57;22.35;;;5.50;;
49071;SDS011;74284;52.610;10.236;2023-11-19T15:48:23;26.80;;;5.50;;
49071;SDS011;74284;52.610;10.236;2023-11-19T15:50:49;20.73;;;4.57;;
49071;SDS011;74284;52.610;10.236;2023-11-19T15:55:40;17.75;;;3.58;;
49071;SDS011;74284;52.610;10.236;2023-11-19T16:00:31;18.45;;;3.55;;
49071;SDS011;74284;52.610;10.236;2023-11-19T16:05:22;20.42;;;3.28;;
49071;SDS011;74284;52.610;10.236;2023-11-19T16:07:48;10.27;;;2.83;;
49071;SDS011;74284;52.610;10.236;2023-11-19T16:10:15;20.08;;;3.75;;
49071;SDS011;74284;52.610;10.236;2023-11-19T16:15:06;19.30;;;3.58;;
49071;SDS011;74284;52.610;10.236;2023-11-19T16:17:33;13.75;;;3.60;;
49071;SDS011;74284;52.610;10.236;2023-11-19T16:20:00;19.08;;;4.18;;
49071;SDS011;74284;52.610;10.236;2023-11-19T16:24:51;13.27;;;3.30;;
49071;SDS011;74284;52.610;10.236;2023-11-19T16:27:19;17.48;;;3.70;;
49071;SDS011;74284;52.610;10.236;2023-11-19T16:32:10;15.15;;;3.60;;
49071;SDS011;74284;52.610;10.236;2023-11-19T16:34:37;21.35;;;3.78;;
49071;SDS011;74284;52.610;10.236;2023-11-19T16:37:07;24.05;;;4.47;;
49071;SDS011;74284;52.610;10.236;2023-11-19T16:39:35;20.38;;;3.63;;
49071;SDS011;74284;52.610;10.236;2023-11-19T16:44:26;17.50;;;3.75;;
49071;SDS011;74284;52.610;10.236;2023-11-19T16:49:16;22.77;;;4.45;;
49071;SDS011;74284;52.610;10.236;2023-11-19T16:56:35;28.50;;;5.47;;
49071;SDS011;74284;52.610;10.236;2023-11-19T17:01:25;23.10;;;4.93;;
49071;SDS011;74284;52.610;10.236;2023-11-19T17:03:51;21.35;;;4.88;;
49071;SDS011;74284;52.610;10.236;2023-11-19T17:06:16;20.88;;;5.03;;
49071;SDS011;74284;52.610;10.236;2023-11-19T17:11:07;18.35;;;5.60;;
49071;SDS011;74284;52.610;10.236;2023-11-19T17:15:58;25.95;;;6.07;;
49071;SDS011;74284;52.610;10.236;2023-11-19T17:18:24;29.05;;;6.53;;
49071;SDS011;74284;52.610;10.236;2023-11-19T17:23:15;23.88;;;6.05;;
49071;SDS011;74284;52.610;10.236;2023-11-19T17:25:40;30.17;;;5.45;;
49071;SDS011;74284;52.610;10.236;2023-11-19T17:30:33;31.88;;;5.38;;
49071;SDS011;74284;52.610;10.236;2023-11-19T17:32:59;28.17;;;5.45;;
49071;SDS011;74284;52.610;10.236;2023-11-19T17:37:50;26.65;;;5.30;;
49071;SDS011;74284;52.610;10.236;2023-11-19T17:42:41;30.35;;;5.70;;
49071;SDS011;74284;52.610;10.236;2023-11-19T17:47:33;23.08;;;5.30;;
49071;SDS011;74284;52.610;10.236;2023-11-19T17:52:24;39.72;;;6.55;;
49071;SDS011;74284;52.610;10.236;2023-11-19T17:57:14;26.40;;;5.78;;
49071;SDS011;74284;52.610;10.236;2023-11-19T18:02:07;32.72;;;7.22;;
49071;SDS011;74284;52.610;10.236;2023-11-19T18:04:32;32.33;;;6.53;;
49071;SDS011;74284;52.610;10.236;2023-11-19T18:09:23;40.25;;;6.90;;
49071;SDS011;74284;52.610;10.236;2023-11-19T18:11:51;28.50;;;6.38;;
49071;SDS011;74284;52.610;10.236;2023-11-19T18:16:42;32.08;;;7.05;;
49071;SDS011;74284;52.610;10.236;2023-11-19T18:19:09;40.90;;;6.97;;
49071;SDS011;74284;52.610;10.236;2023-11-19T18:21:35;35.42;;;6.68;;
49071;SDS011;74284;52.610;10.236;2023-11-19T18:26:25;27.95;;;5.72;;
49071;SDS011;74284;52.610;10.236;2023-11-19T18:31:18;27.63;;;6.53;;
49071;SDS011;74284;52.610;10.236;2023-11-19T18:33:43;25.60;;;5.97;;
49071;SDS011;74284;52.610;10.236;2023-11-19T18:36:09;23.42;;;6.00;;